Plumas, Canada
Current Conditions -  °F | °C
As of 10:00 AM on Monday 26 Jan 2015 (Local Time) from CYBR Reporting Station
Broken Clouds Broken Clouds  
Wind Chill: 17°   Ceiling: 21000
Heat Index: 28°   Visibility: 15mi
Dew Point: 25°   Wind: 14mph
Humidity: 86%   Direction: 280°W
Pressure: 29.84"   Gusts: NA
Location:  50.38°N, 99.08°W
Report Text: CYBR 261600Z 28012KT 15SM FEW020 BKN210 M02/M04 A2984 RMK SC1CI7 SC TR SLP127
Loading
Personal Weather Stations






























Interactive Weather Map New forecast layout! Learn more

10-Day Weather Forecast

Advertisements
Track Severe Weather on mobile